sensor_id;sensor_type;location;lat;lon;timestamp;P1;durP1;ratioP1;P2;durP2;ratioP2
3022;SDS011;1521;53.584;9.938;2023-05-07T00:00:21;16.13;;;12.77;;
3022;SDS011;1521;53.584;9.938;2023-05-07T00:02:46;21.33;;;13.37;;
3022;SDS011;1521;53.584;9.938;2023-05-07T00:05:12;21.40;;;14.37;;
3022;SDS011;1521;53.584;9.938;2023-05-07T00:07:38;17.10;;;12.77;;
3022;SDS011;1521;53.584;9.938;2023-05-07T00:10:04;19.50;;;13.60;;
3022;SDS011;1521;53.584;9.938;2023-05-07T00:12:31;17.80;;;12.97;;
3022;SDS011;1521;53.584;9.938;2023-05-07T00:14:58;25.20;;;14.77;;
3022;SDS011;1521;53.584;9.938;2023-05-07T00:17:25;19.50;;;14.03;;
3022;SDS011;1521;53.584;9.938;2023-05-07T00:19:50;20.03;;;14.07;;
3022;SDS011;1521;53.584;9.938;2023-05-07T00:22:16;20.73;;;14.60;;
3022;SDS011;1521;53.584;9.938;2023-05-07T00:24:42;21.77;;;14.23;;
3022;SDS011;1521;53.584;9.938;2023-05-07T00:27:07;20.60;;;13.80;;
3022;SDS011;1521;53.584;9.938;2023-05-07T00:29:33;23.30;;;14.17;;
3022;SDS011;1521;53.584;9.938;2023-05-07T00:31:59;20.03;;;13.97;;
3022;SDS011;1521;53.584;9.938;2023-05-07T00:34:24;19.97;;;14.47;;
3022;SDS011;1521;53.584;9.938;2023-05-07T00:36:50;18.43;;;13.20;;
3022;SDS011;1521;53.584;9.938;2023-05-07T00:39:15;21.20;;;14.80;;
3022;SDS011;1521;53.584;9.938;2023-05-07T00:41:41;22.67;;;14.73;;
3022;SDS011;1521;53.584;9.938;2023-05-07T00:44:07;21.90;;;15.03;;
3022;SDS011;1521;53.584;9.938;2023-05-07T00:46:32;19.00;;;13.57;;
3022;SDS011;1521;53.584;9.938;2023-05-07T00:48:58;23.33;;;15.57;;
3022;SDS011;1521;53.584;9.938;2023-05-07T00:51:25;20.40;;;14.47;;
3022;SDS011;1521;53.584;9.938;2023-05-07T00:53:52;18.57;;;13.73;;
3022;SDS011;1521;53.584;9.938;2023-05-07T00:56:18;17.53;;;12.97;;
3022;SDS011;1521;53.584;9.938;2023-05-07T00:58:46;18.50;;;13.70;;
3022;SDS011;1521;53.584;9.938;2023-05-07T01:01:12;21.30;;;15.13;;
3022;SDS011;1521;53.584;9.938;2023-05-07T01:03:38;20.80;;;14.20;;
3022;SDS011;1521;53.584;9.938;2023-05-07T01:06:03;19.40;;;12.87;;
3022;SDS011;1521;53.584;9.938;2023-05-07T01:08:31;20.50;;;13.63;;
3022;SDS011;1521;53.584;9.938;2023-05-07T01:10:57;20.17;;;13.90;;
3022;SDS011;1521;53.584;9.938;2023-05-07T01:13:24;18.33;;;13.67;;
3022;SDS011;1521;53.584;9.938;2023-05-07T01:15:50;17.20;;;13.07;;
3022;SDS011;1521;53.584;9.938;2023-05-07T01:18:16;17.80;;;14.07;;
3022;SDS011;1521;53.584;9.938;2023-05-07T01:20:42;19.37;;;13.43;;
3022;SDS011;1521;53.584;9.938;2023-05-07T01:23:07;18.57;;;14.10;;
3022;SDS011;1521;53.584;9.938;2023-05-07T01:25:35;18.93;;;13.97;;
3022;SDS011;1521;53.584;9.938;2023-05-07T01:28:01;18.40;;;13.10;;
3022;SDS011;1521;53.584;9.938;2023-05-07T01:30:27;17.70;;;12.60;;
3022;SDS011;1521;53.584;9.938;2023-05-07T01:32:56;18.00;;;12.83;;
3022;SDS011;1521;53.584;9.938;2023-05-07T01:35:29;18.20;;;12.40;;
3022;SDS011;1521;53.584;9.938;2023-05-07T01:37:59;15.97;;;12.07;;
3022;SDS011;1521;53.584;9.938;2023-05-07T01:40:25;17.13;;;11.73;;
3022;SDS011;1521;53.584;9.938;2023-05-07T01:42:52;15.80;;;11.47;;
3022;SDS011;1521;53.584;9.938;2023-05-07T01:45:19;16.90;;;12.10;;
3022;SDS011;1521;53.584;9.938;2023-05-07T01:47:45;14.40;;;11.00;;
3022;SDS011;1521;53.584;9.938;2023-05-07T01:50:11;15.27;;;12.03;;
3022;SDS011;1521;53.584;9.938;2023-05-07T01:52:37;16.30;;;12.50;;
3022;SDS011;1521;53.584;9.938;2023-05-07T01:55:03;15.60;;;11.87;;
3022;SDS011;1521;53.584;9.938;2023-05-07T01:57:30;14.10;;;11.47;;
3022;SDS011;1521;53.584;9.938;2023-05-07T01:59:55;15.47;;;11.83;;
3022;SDS011;1521;53.584;9.938;2023-05-07T02:02:21;16.50;;;11.90;;
3022;SDS011;1521;53.584;9.938;2023-05-07T02:04:46;17.27;;;11.80;;
3022;SDS011;1521;53.584;9.938;2023-05-07T02:07:12;17.13;;;12.10;;
3022;SDS011;1521;53.584;9.938;2023-05-07T02:09:38;15.10;;;11.47;;
3022;SDS011;1521;53.584;9.938;2023-05-07T02:12:03;15.47;;;11.50;;
3022;SDS011;1521;53.584;9.938;2023-05-07T02:14:29;14.60;;;11.23;;
3022;SDS011;1521;53.584;9.938;2023-05-07T02:16:55;16.33;;;11.80;;
3022;SDS011;1521;53.584;9.938;2023-05-07T02:19:20;15.53;;;12.07;;
3022;SDS011;1521;53.584;9.938;2023-05-07T02:21:46;16.33;;;12.20;;
3022;SDS011;1521;53.584;9.938;2023-05-07T02:24:12;15.30;;;12.10;;
3022;SDS011;1521;53.584;9.938;2023-05-07T02:26:39;16.10;;;11.83;;
3022;SDS011;1521;53.584;9.938;2023-05-07T02:29:05;17.07;;;12.83;;
3022;SDS011;1521;53.584;9.938;2023-05-07T02:31:31;18.17;;;11.97;;
3022;SDS011;1521;53.584;9.938;2023-05-07T02:33:58;16.10;;;11.93;;
3022;SDS011;1521;53.584;9.938;2023-05-07T02:36:24;15.20;;;11.40;;
3022;SDS011;1521;53.584;9.938;2023-05-07T02:38:51;15.40;;;11.10;;
3022;SDS011;1521;53.584;9.938;2023-05-07T02:41:17;14.30;;;10.80;;
3022;SDS011;1521;53.584;9.938;2023-05-07T02:43:43;15.23;;;10.80;;
3022;SDS011;1521;53.584;9.938;2023-05-07T02:46:08;15.83;;;10.80;;
3022;SDS011;1521;53.584;9.938;2023-05-07T02:48:34;14.40;;;10.23;;
3022;SDS011;1521;53.584;9.938;2023-05-07T02:51:00;15.60;;;11.17;;
3022;SDS011;1521;53.584;9.938;2023-05-07T02:53:26;15.57;;;10.93;;
3022;SDS011;1521;53.584;9.938;2023-05-07T02:55:55;14.57;;;10.90;;
3022;SDS011;1521;53.584;9.938;2023-05-07T02:58:21;15.90;;;11.27;;
3022;SDS011;1521;53.584;9.938;2023-05-07T03:00:47;15.50;;;10.80;;
3022;SDS011;1521;53.584;9.938;2023-05-07T03:03:13;16.63;;;9.77;;
3022;SDS011;1521;53.584;9.938;2023-05-07T03:05:39;15.60;;;10.53;;
3022;SDS011;1521;53.584;9.938;2023-05-07T03:08:04;14.97;;;10.47;;
3022;SDS011;1521;53.584;9.938;2023-05-07T03:10:30;14.40;;;9.90;;
3022;SDS011;1521;53.584;9.938;2023-05-07T03:12:56;13.73;;;10.30;;
3022;SDS011;1521;53.584;9.938;2023-05-07T03:15:21;15.20;;;10.33;;
3022;SDS011;1521;53.584;9.938;2023-05-07T03:17:47;15.50;;;10.90;;
3022;SDS011;1521;53.584;9.938;2023-05-07T03:20:13;16.60;;;11.50;;
3022;SDS011;1521;53.584;9.938;2023-05-07T03:22:39;19.40;;;11.20;;
3022;SDS011;1521;53.584;9.938;2023-05-07T03:25:05;19.53;;;11.73;;
3022;SDS011;1521;53.584;9.938;2023-05-07T03:27:31;19.50;;;12.33;;
3022;SDS011;1521;53.584;9.938;2023-05-07T03:29:56;19.83;;;12.90;;
3022;SDS011;1521;53.584;9.938;2023-05-07T03:32:22;16.00;;;11.80;;
3022;SDS011;1521;53.584;9.938;2023-05-07T03:34:48;18.00;;;12.70;;
3022;SDS011;1521;53.584;9.938;2023-05-07T03:37:13;19.90;;;13.00;;
3022;SDS011;1521;53.584;9.938;2023-05-07T03:39:39;18.07;;;12.50;;
3022;SDS011;1521;53.584;9.938;2023-05-07T03:42:04;21.30;;;12.90;;
3022;SDS011;1521;53.584;9.938;2023-05-07T03:44:30;18.43;;;13.40;;
3022;SDS011;1521;53.584;9.938;2023-05-07T03:46:56;19.93;;;12.77;;
3022;SDS011;1521;53.584;9.938;2023-05-07T03:49:21;17.23;;;12.23;;
3022;SDS011;1521;53.584;9.938;2023-05-07T03:51:47;15.10;;;11.10;;
3022;SDS011;1521;53.584;9.938;2023-05-07T03:54:12;17.57;;;12.37;;
3022;SDS011;1521;53.584;9.938;2023-05-07T03:56:38;21.27;;;12.07;;
3022;SDS011;1521;53.584;9.938;2023-05-07T03:59:03;15.93;;;12.33;;
3022;SDS011;1521;53.584;9.938;2023-05-07T04:01:29;15.77;;;12.40;;
3022;SDS011;1521;53.584;9.938;2023-05-07T04:03:55;17.73;;;12.80;;
3022;SDS011;1521;53.584;9.938;2023-05-07T04:06:20;17.50;;;13.20;;
3022;SDS011;1521;53.584;9.938;2023-05-07T04:08:46;17.97;;;12.63;;
3022;SDS011;1521;53.584;9.938;2023-05-07T04:11:12;20.60;;;11.53;;
3022;SDS011;1521;53.584;9.938;2023-05-07T04:13:37;16.67;;;11.87;;
3022;SDS011;1521;53.584;9.938;2023-05-07T04:16:03;15.00;;;11.20;;
3022;SDS011;1521;53.584;9.938;2023-05-07T04:18:30;14.13;;;10.77;;
3022;SDS011;1521;53.584;9.938;2023-05-07T04:20:55;15.70;;;11.17;;
3022;SDS011;1521;53.584;9.938;2023-05-07T04:23:21;17.67;;;12.47;;
3022;SDS011;1521;53.584;9.938;2023-05-07T04:25:46;19.30;;;12.83;;
3022;SDS011;1521;53.584;9.938;2023-05-07T04:28:12;16.77;;;12.13;;
3022;SDS011;1521;53.584;9.938;2023-05-07T04:30:38;16.33;;;11.67;;
3022;SDS011;1521;53.584;9.938;2023-05-07T04:33:04;15.73;;;11.60;;
3022;SDS011;1521;53.584;9.938;2023-05-07T04:35:30;17.33;;;11.97;;
3022;SDS011;1521;53.584;9.938;2023-05-07T04:37:56;17.63;;;12.00;;
3022;SDS011;1521;53.584;9.938;2023-05-07T04:40:22;17.33;;;12.43;;
3022;SDS011;1521;53.584;9.938;2023-05-07T04:42:47;17.67;;;12.20;;
3022;SDS011;1521;53.584;9.938;2023-05-07T04:45:13;16.30;;;11.43;;
3022;SDS011;1521;53.584;9.938;2023-05-07T04:47:38;16.93;;;11.53;;
3022;SDS011;1521;53.584;9.938;2023-05-07T04:50:05;16.80;;;12.23;;
3022;SDS011;1521;53.584;9.938;2023-05-07T04:52:31;17.53;;;11.87;;
3022;SDS011;1521;53.584;9.938;2023-05-07T04:54:59;14.67;;;11.40;;
3022;SDS011;1521;53.584;9.938;2023-05-07T04:57:25;15.03;;;10.00;;
3022;SDS011;1521;53.584;9.938;2023-05-07T04:59:51;14.40;;;10.80;;
3022;SDS011;1521;53.584;9.938;2023-05-07T05:02:17;13.63;;;9.80;;
3022;SDS011;1521;53.584;9.938;2023-05-07T05:04:42;14.17;;;11.00;;
3022;SDS011;1521;53.584;9.938;2023-05-07T05:07:08;14.30;;;10.80;;
3022;SDS011;1521;53.584;9.938;2023-05-07T05:09:33;13.00;;;10.03;;
3022;SDS011;1521;53.584;9.938;2023-05-07T05:11:59;16.60;;;10.33;;
3022;SDS011;1521;53.584;9.938;2023-05-07T05:14:25;14.50;;;10.70;;
3022;SDS011;1521;53.584;9.938;2023-05-07T05:16:50;16.03;;;10.90;;
3022;SDS011;1521;53.584;9.938;2023-05-07T05:19:16;14.37;;;10.50;;
3022;SDS011;1521;53.584;9.938;2023-05-07T05:21:42;12.93;;;10.60;;
3022;SDS011;1521;53.584;9.938;2023-05-07T05:24:07;16.23;;;9.80;;
3022;SDS011;1521;53.584;9.938;2023-05-07T05:26:34;14.20;;;10.77;;
3022;SDS011;1521;53.584;9.938;2023-05-07T05:28:59;15.40;;;11.30;;
3022;SDS011;1521;53.584;9.938;2023-05-07T05:31:25;12.40;;;10.07;;
3022;SDS011;1521;53.584;9.938;2023-05-07T05:33:51;15.60;;;10.40;;
3022;SDS011;1521;53.584;9.938;2023-05-07T05:36:16;13.73;;;10.23;;
3022;SDS011;1521;53.584;9.938;2023-05-07T05:38:42;14.20;;;10.27;;
3022;SDS011;1521;53.584;9.938;2023-05-07T05:41:08;16.53;;;11.17;;
3022;SDS011;1521;53.584;9.938;2023-05-07T05:43:34;16.60;;;10.87;;
3022;SDS011;1521;53.584;9.938;2023-05-07T05:46:00;15.37;;;11.00;;
3022;SDS011;1521;53.584;9.938;2023-05-07T05:48:25;17.00;;;11.43;;
3022;SDS011;1521;53.584;9.938;2023-05-07T05:50:51;16.10;;;10.67;;
3022;SDS011;1521;53.584;9.938;2023-05-07T05:53:17;14.00;;;10.87;;
3022;SDS011;1521;53.584;9.938;2023-05-07T05:55:42;16.10;;;10.67;;
3022;SDS011;1521;53.584;9.938;2023-05-07T05:58:08;16.73;;;10.70;;
3022;SDS011;1521;53.584;9.938;2023-05-07T06:00:34;16.90;;;10.60;;
3022;SDS011;1521;53.584;9.938;2023-05-07T06:03:00;14.07;;;10.73;;
3022;SDS011;1521;53.584;9.938;2023-05-07T06:05:25;14.67;;;10.83;;
3022;SDS011;1521;53.584;9.938;2023-05-07T06:07:51;14.30;;;10.70;;
3022;SDS011;1521;53.584;9.938;2023-05-07T06:10:16;14.80;;;10.53;;
3022;SDS011;1521;53.584;9.938;2023-05-07T06:12:42;13.33;;;10.73;;
3022;SDS011;1521;53.584;9.938;2023-05-07T06:15:08;17.83;;;11.03;;
3022;SDS011;1521;53.584;9.938;2023-05-07T06:17:34;12.00;;;10.10;;
3022;SDS011;1521;53.584;9.938;2023-05-07T06:20:00;17.80;;;11.10;;
3022;SDS011;1521;53.584;9.938;2023-05-07T06:22:25;14.60;;;10.63;;
3022;SDS011;1521;53.584;9.938;2023-05-07T06:24:51;15.70;;;11.43;;
3022;SDS011;1521;53.584;9.938;2023-05-07T06:27:16;15.90;;;11.87;;
3022;SDS011;1521;53.584;9.938;2023-05-07T06:29:42;15.57;;;11.27;;
3022;SDS011;1521;53.584;9.938;2023-05-07T06:32:08;14.80;;;11.17;;
3022;SDS011;1521;53.584;9.938;2023-05-07T06:34:35;15.27;;;10.77;;
3022;SDS011;1521;53.584;9.938;2023-05-07T06:37:01;14.83;;;10.70;;
3022;SDS011;1521;53.584;9.938;2023-05-07T06:39:27;14.80;;;11.43;;
3022;SDS011;1521;53.584;9.938;2023-05-07T06:41:53;16.13;;;11.20;;
3022;SDS011;1521;53.584;9.938;2023-05-07T06:44:18;17.27;;;11.30;;
3022;SDS011;1521;53.584;9.938;2023-05-07T06:46:44;16.23;;;10.90;;
3022;SDS011;1521;53.584;9.938;2023-05-07T06:49:10;14.17;;;11.33;;
3022;SDS011;1521;53.584;9.938;2023-05-07T06:51:37;15.20;;;10.90;;
3022;SDS011;1521;53.584;9.938;2023-05-07T06:54:02;13.17;;;10.07;;
3022;SDS011;1521;53.584;9.938;2023-05-07T06:56:29;14.87;;;10.30;;
3022;SDS011;1521;53.584;9.938;2023-05-07T06:58:55;16.00;;;11.03;;
3022;SDS011;1521;53.584;9.938;2023-05-07T07:01:21;18.90;;;11.23;;
3022;SDS011;1521;53.584;9.938;2023-05-07T07:03:47;13.90;;;10.50;;
3022;SDS011;1521;53.584;9.938;2023-05-07T07:06:12;14.37;;;10.70;;
3022;SDS011;1521;53.584;9.938;2023-05-07T07:08:38;15.10;;;10.37;;
3022;SDS011;1521;53.584;9.938;2023-05-07T07:11:04;15.27;;;10.37;;
3022;SDS011;1521;53.584;9.938;2023-05-07T07:13:30;13.30;;;10.10;;
3022;SDS011;1521;53.584;9.938;2023-05-07T07:15:56;12.63;;;9.60;;
3022;SDS011;1521;53.584;9.938;2023-05-07T07:18:21;12.50;;;9.67;;
3022;SDS011;1521;53.584;9.938;2023-05-07T07:20:47;13.93;;;9.53;;
3022;SDS011;1521;53.584;9.938;2023-05-07T07:23:13;12.97;;;8.60;;
3022;SDS011;1521;53.584;9.938;2023-05-07T07:25:39;13.33;;;9.07;;
3022;SDS011;1521;53.584;9.938;2023-05-07T07:28:05;13.17;;;9.73;;
3022;SDS011;1521;53.584;9.938;2023-05-07T07:30:31;12.87;;;9.80;;
3022;SDS011;1521;53.584;9.938;2023-05-07T07:32:56;12.10;;;9.63;;
3022;SDS011;1521;53.584;9.938;2023-05-07T07:35:27;13.93;;;9.40;;
3022;SDS011;1521;53.584;9.938;2023-05-07T07:37:53;11.97;;;9.00;;
3022;SDS011;1521;53.584;9.938;2023-05-07T07:40:19;11.50;;;8.70;;
3022;SDS011;1521;53.584;9.938;2023-05-07T07:42:44;10.50;;;8.80;;
3022;SDS011;1521;53.584;9.938;2023-05-07T07:45:10;11.63;;;9.33;;
3022;SDS011;1521;53.584;9.938;2023-05-07T07:47:36;11.37;;;8.87;;
3022;SDS011;1521;53.584;9.938;2023-05-07T07:50:02;11.87;;;8.27;;
3022;SDS011;1521;53.584;9.938;2023-05-07T07:52:28;11.10;;;8.07;;
3022;SDS011;1521;53.584;9.938;2023-05-07T07:54:53;11.17;;;8.83;;
3022;SDS011;1521;53.584;9.938;2023-05-07T07:57:19;10.70;;;8.00;;
3022;SDS011;1521;53.584;9.938;2023-05-07T07:59:44;9.60;;;7.87;;
3022;SDS011;1521;53.584;9.938;2023-05-07T08:02:10;10.27;;;7.80;;
3022;SDS011;1521;53.584;9.938;2023-05-07T08:04:36;12.57;;;8.33;;
3022;SDS011;1521;53.584;9.938;2023-05-07T08:07:02;11.10;;;8.20;;
3022;SDS011;1521;53.584;9.938;2023-05-07T08:09:28;12.53;;;7.80;;
3022;SDS011;1521;53.584;9.938;2023-05-07T08:11:53;14.87;;;8.87;;
3022;SDS011;1521;53.584;9.938;2023-05-07T08:14:19;10.10;;;7.80;;
3022;SDS011;1521;53.584;9.938;2023-05-07T08:16:45;9.50;;;8.00;;
3022;SDS011;1521;53.584;9.938;2023-05-07T08:19:10;12.23;;;8.20;;
3022;SDS011;1521;53.584;9.938;2023-05-07T08:21:38;8.80;;;7.60;;
3022;SDS011;1521;53.584;9.938;2023-05-07T08:24:05;9.33;;;7.77;;
3022;SDS011;1521;53.584;9.938;2023-05-07T08:26:30;9.50;;;8.10;;
3022;SDS011;1521;53.584;9.938;2023-05-07T08:28:56;11.43;;;7.80;;
3022;SDS011;1521;53.584;9.938;2023-05-07T08:31:21;9.47;;;7.77;;
3022;SDS011;1521;53.584;9.938;2023-05-07T08:33:47;9.97;;;8.33;;
3022;SDS011;1521;53.584;9.938;2023-05-07T08:36:12;11.63;;;8.50;;
3022;SDS011;1521;53.584;9.938;2023-05-07T08:38:38;12.80;;;7.73;;
3022;SDS011;1521;53.584;9.938;2023-05-07T08:41:05;11.27;;;8.27;;
3022;SDS011;1521;53.584;9.938;2023-05-07T08:43:32;11.07;;;8.40;;
3022;SDS011;1521;53.584;9.938;2023-05-07T08:46:01;9.90;;;8.10;;
3022;SDS011;1521;53.584;9.938;2023-05-07T08:48:27;9.00;;;7.47;;
3022;SDS011;1521;53.584;9.938;2023-05-07T08:50:57;10.40;;;7.90;;
3022;SDS011;1521;53.584;9.938;2023-05-07T08:53:23;10.67;;;8.07;;
3022;SDS011;1521;53.584;9.938;2023-05-07T08:55:49;9.63;;;8.07;;
3022;SDS011;1521;53.584;9.938;2023-05-07T08:58:15;10.50;;;9.10;;
3022;SDS011;1521;53.584;9.938;2023-05-07T09:00:41;13.50;;;8.87;;
3022;SDS011;1521;53.584;9.938;2023-05-07T09:03:07;12.13;;;9.97;;
3022;SDS011;1521;53.584;9.938;2023-05-07T09:05:33;9.93;;;8.53;;
3022;SDS011;1521;53.584;9.938;2023-05-07T09:07:59;10.17;;;9.10;;
3022;SDS011;1521;53.584;9.938;2023-05-07T09:10:25;11.50;;;9.20;;
3022;SDS011;1521;53.584;9.938;2023-05-07T09:12:51;10.50;;;8.70;;
3022;SDS011;1521;53.584;9.938;2023-05-07T09:15:18;12.63;;;8.50;;
3022;SDS011;1521;53.584;9.938;2023-05-07T09:17:44;10.60;;;8.60;;
3022;SDS011;1521;53.584;9.938;2023-05-07T09:20:09;12.13;;;8.77;;
3022;SDS011;1521;53.584;9.938;2023-05-07T09:22:38;12.93;;;9.43;;
3022;SDS011;1521;53.584;9.938;2023-05-07T09:25:05;10.37;;;8.70;;
3022;SDS011;1521;53.584;9.938;2023-05-07T09:27:32;12.00;;;8.80;;
3022;SDS011;1521;53.584;9.938;2023-05-07T09:29:57;13.13;;;8.30;;
3022;SDS011;1521;53.584;9.938;2023-05-07T09:32:23;10.73;;;7.87;;
3022;SDS011;1521;53.584;9.938;2023-05-07T09:34:50;11.67;;;8.47;;
3022;SDS011;1521;53.584;9.938;2023-05-07T09:37:16;14.40;;;8.20;;
3022;SDS011;1521;53.584;9.938;2023-05-07T09:39:43;11.03;;;8.20;;
3022;SDS011;1521;53.584;9.938;2023-05-07T09:42:12;8.77;;;7.20;;
3022;SDS011;1521;53.584;9.938;2023-05-07T09:44:40;9.30;;;7.23;;
3022;SDS011;1521;53.584;9.938;2023-05-07T09:47:06;8.40;;;7.07;;
3022;SDS011;1521;53.584;9.938;2023-05-07T09:49:36;9.57;;;7.20;;
3022;SDS011;1521;53.584;9.938;2023-05-07T09:52:05;8.73;;;7.70;;
3022;SDS011;1521;53.584;9.938;2023-05-07T09:54:33;8.60;;;7.70;;
3022;SDS011;1521;53.584;9.938;2023-05-07T09:57:01;12.53;;;7.80;;
3022;SDS011;1521;53.584;9.938;2023-05-07T09:59:28;8.73;;;7.50;;
3022;SDS011;1521;53.584;9.938;2023-05-07T10:01:56;8.47;;;7.67;;
3022;SDS011;1521;53.584;9.938;2023-05-07T10:04:24;8.60;;;6.97;;
3022;SDS011;1521;53.584;9.938;2023-05-07T10:06:51;9.00;;;7.47;;
3022;SDS011;1521;53.584;9.938;2023-05-07T10:09:18;7.30;;;6.60;;
3022;SDS011;1521;53.584;9.938;2023-05-07T10:11:45;8.27;;;7.40;;
3022;SDS011;1521;53.584;9.938;2023-05-07T10:14:13;8.80;;;6.77;;
3022;SDS011;1521;53.584;9.938;2023-05-07T10:16:39;10.70;;;7.60;;
3022;SDS011;1521;53.584;9.938;2023-05-07T10:19:06;8.00;;;6.93;;
3022;SDS011;1521;53.584;9.938;2023-05-07T10:21:35;10.27;;;8.03;;
3022;SDS011;1521;53.584;9.938;2023-05-07T10:24:04;10.00;;;7.70;;
3022;SDS011;1521;53.584;9.938;2023-05-07T10:26:38;7.90;;;7.00;;
3022;SDS011;1521;53.584;9.938;2023-05-07T10:29:53;14.00;;;8.17;;
3022;SDS011;1521;53.584;9.938;2023-05-07T10:34:32;8.63;;;7.50;;
3022;SDS011;1521;53.584;9.938;2023-05-07T10:37:01;9.63;;;7.53;;
3022;SDS011;1521;53.584;9.938;2023-05-07T10:39:27;10.17;;;7.57;;
3022;SDS011;1521;53.584;9.938;2023-05-07T10:41:53;8.40;;;7.07;;
3022;SDS011;1521;53.584;9.938;2023-05-07T10:44:28;9.53;;;8.20;;
3022;SDS011;1521;53.584;9.938;2023-05-07T10:47:07;8.60;;;7.70;;
3022;SDS011;1521;53.584;9.938;2023-05-07T10:50:19;8.30;;;7.37;;
3022;SDS011;1521;53.584;9.938;2023-05-07T10:52:21;8.30;;;7.20;;
3022;SDS011;1521;53.584;9.938;2023-05-07T10:55:18;8.23;;;6.80;;
3022;SDS011;1521;53.584;9.938;2023-05-07T10:57:52;9.30;;;7.20;;
3022;SDS011;1521;53.584;9.938;2023-05-07T11:05:25;7.60;;;6.80;;
3022;SDS011;1521;53.584;9.938;2023-05-07T11:07:59;7.17;;;6.47;;
3022;SDS011;1521;53.584;9.938;2023-05-07T11:13:15;7.30;;;6.27;;
3022;SDS011;1521;53.584;9.938;2023-05-07T11:15:44;7.10;;;6.40;;
3022;SDS011;1521;53.584;9.938;2023-05-07T11:18:12;7.20;;;6.50;;
3022;SDS011;1521;53.584;9.938;2023-05-07T11:20:59;7.57;;;6.30;;
3022;SDS011;1521;53.584;9.938;2023-05-07T11:26:00;6.43;;;5.83;;
3022;SDS011;1521;53.584;9.938;2023-05-07T11:28:38;7.20;;;6.50;;
3022;SDS011;1521;53.584;9.938;2023-05-07T11:31:08;8.73;;;7.03;;
3022;SDS011;1521;53.584;9.938;2023-05-07T11:33:34;8.40;;;6.83;;
3022;SDS011;1521;53.584;9.938;2023-05-07T11:36:01;9.80;;;5.90;;
3022;SDS011;1521;53.584;9.938;2023-05-07T11:38:28;10.50;;;6.43;;
3022;SDS011;1521;53.584;9.938;2023-05-07T11:40:56;7.63;;;5.90;;
3022;SDS011;1521;53.584;9.938;2023-05-07T11:43:25;10.30;;;7.50;;
3022;SDS011;1521;53.584;9.938;2023-05-07T11:45:51;8.80;;;7.27;;
3022;SDS011;1521;53.584;9.938;2023-05-07T11:48:17;9.20;;;6.90;;
3022;SDS011;1521;53.584;9.938;2023-05-07T11:51:16;7.20;;;6.30;;
3022;SDS011;1521;53.584;9.938;2023-05-07T11:53:38;7.13;;;6.10;;
3022;SDS011;1521;53.584;9.938;2023-05-07T11:58:35;8.80;;;6.20;;
3022;SDS011;1521;53.584;9.938;2023-05-07T12:01:01;5.50;;;5.00;;
3022;SDS011;1521;53.584;9.938;2023-05-07T12:03:26;6.10;;;5.60;;
3022;SDS011;1521;53.584;9.938;2023-05-07T12:05:52;7.13;;;6.43;;
3022;SDS011;1521;53.584;9.938;2023-05-07T12:08:18;8.50;;;6.00;;
3022;SDS011;1521;53.584;9.938;2023-05-07T12:10:45;7.17;;;5.10;;
3022;SDS011;1521;53.584;9.938;2023-05-07T12:13:20;6.10;;;5.30;;
3022;SDS011;1521;53.584;9.938;2023-05-07T12:15:50;5.97;;;5.40;;
3022;SDS011;1521;53.584;9.938;2023-05-07T12:18:17;6.43;;;5.10;;
3022;SDS011;1521;53.584;9.938;2023-05-07T12:20:43;7.70;;;4.80;;
3022;SDS011;1521;53.584;9.938;2023-05-07T12:23:10;5.67;;;5.00;;
3022;SDS011;1521;53.584;9.938;2023-05-07T12:25:36;5.63;;;4.87;;
3022;SDS011;1521;53.584;9.938;2023-05-07T12:28:03;5.10;;;4.60;;
3022;SDS011;1521;53.584;9.938;2023-05-07T12:30:36;5.30;;;3.97;;
3022;SDS011;1521;53.584;9.938;2023-05-07T12:33:02;5.17;;;4.70;;
3022;SDS011;1521;53.584;9.938;2023-05-07T12:37:57;4.30;;;3.90;;
3022;SDS011;1521;53.584;9.938;2023-05-07T12:40:33;7.30;;;4.23;;
3022;SDS011;1521;53.584;9.938;2023-05-07T12:43:01;7.57;;;5.20;;
3022;SDS011;1521;53.584;9.938;2023-05-07T12:45:27;5.30;;;4.80;;
3022;SDS011;1521;53.584;9.938;2023-05-07T12:47:52;4.73;;;4.23;;
3022;SDS011;1521;53.584;9.938;2023-05-07T12:50:18;4.27;;;3.87;;
3022;SDS011;1521;53.584;9.938;2023-05-07T12:52:45;4.83;;;4.23;;
3022;SDS011;1521;53.584;9.938;2023-05-07T12:55:14;4.10;;;3.70;;
3022;SDS011;1521;53.584;9.938;2023-05-07T12:58:00;5.03;;;4.20;;
3022;SDS011;1521;53.584;9.938;2023-05-07T13:00:36;5.77;;;3.90;;
3022;SDS011;1521;53.584;9.938;2023-05-07T13:03:02;5.10;;;4.60;;
3022;SDS011;1521;53.584;9.938;2023-05-07T13:05:28;5.87;;;4.47;;
3022;SDS011;1521;53.584;9.938;2023-05-07T13:07:54;5.73;;;4.20;;
3022;SDS011;1521;53.584;9.938;2023-05-07T13:10:40;4.37;;;3.97;;
3022;SDS011;1521;53.584;9.938;2023-05-07T13:13:05;5.30;;;4.80;;
3022;SDS011;1521;53.584;9.938;2023-05-07T13:15:31;6.40;;;5.10;;
3022;SDS011;1521;53.584;9.938;2023-05-07T13:17:57;4.50;;;4.10;;
3022;SDS011;1521;53.584;9.938;2023-05-07T13:20:22;4.67;;;4.20;;
3022;SDS011;1521;53.584;9.938;2023-05-07T13:22:48;5.40;;;3.57;;
3022;SDS011;1521;53.584;9.938;2023-05-07T13:25:14;4.93;;;3.90;;
3022;SDS011;1521;53.584;9.938;2023-05-07T13:27:40;4.57;;;4.03;;
3022;SDS011;1521;53.584;9.938;2023-05-07T13:30:06;4.17;;;3.80;;
3022;SDS011;1521;53.584;9.938;2023-05-07T13:32:32;4.07;;;3.67;;
3022;SDS011;1521;53.584;9.938;2023-05-07T13:34:58;5.50;;;3.40;;
3022;SDS011;1521;53.584;9.938;2023-05-07T13:37:23;3.73;;;3.30;;
3022;SDS011;1521;53.584;9.938;2023-05-07T13:39:49;6.97;;;3.87;;
3022;SDS011;1521;53.584;9.938;2023-05-07T13:42:14;4.03;;;3.63;;
3022;SDS011;1521;53.584;9.938;2023-05-07T13:44:40;3.77;;;3.47;;
3022;SDS011;1521;53.584;9.938;2023-05-07T13:47:06;4.10;;;3.70;;
3022;SDS011;1521;53.584;9.938;2023-05-07T13:49:31;4.50;;;3.73;;
3022;SDS011;1521;53.584;9.938;2023-05-07T13:51:57;8.47;;;3.50;;
3022;SDS011;1521;53.584;9.938;2023-05-07T13:54:22;3.90;;;3.60;;
3022;SDS011;1521;53.584;9.938;2023-05-07T13:56:48;5.80;;;3.33;;
3022;SDS011;1521;53.584;9.938;2023-05-07T13:59:14;4.30;;;3.90;;
3022;SDS011;1521;53.584;9.938;2023-05-07T14:01:40;3.60;;;3.27;;
3022;SDS011;1521;53.584;9.938;2023-05-07T14:04:05;3.77;;;3.47;;
3022;SDS011;1521;53.584;9.938;2023-05-07T14:06:32;4.80;;;3.10;;
3022;SDS011;1521;53.584;9.938;2023-05-07T14:08:58;6.40;;;3.60;;
3022;SDS011;1521;53.584;9.938;2023-05-07T14:11:25;3.23;;;3.03;;
3022;SDS011;1521;53.584;9.938;2023-05-07T14:13:50;3.83;;;3.03;;
3022;SDS011;1521;53.584;9.938;2023-05-07T14:16:16;5.63;;;3.47;;
3022;SDS011;1521;53.584;9.938;2023-05-07T14:18:41;4.37;;;2.93;;
3022;SDS011;1521;53.584;9.938;2023-05-07T14:21:07;3.30;;;3.00;;
3022;SDS011;1521;53.584;9.938;2023-05-07T14:23:34;5.63;;;2.73;;
3022;SDS011;1521;53.584;9.938;2023-05-07T14:26:00;3.40;;;3.10;;
3022;SDS011;1521;53.584;9.938;2023-05-07T14:28:25;3.17;;;2.87;;
3022;SDS011;1521;53.584;9.938;2023-05-07T14:30:51;2.97;;;2.77;;
3022;SDS011;1521;53.584;9.938;2023-05-07T14:33:16;3.90;;;3.00;;
3022;SDS011;1521;53.584;9.938;2023-05-07T14:35:42;4.97;;;3.10;;
3022;SDS011;1521;53.584;9.938;2023-05-07T14:38:12;3.43;;;3.13;;
3022;SDS011;1521;53.584;9.938;2023-05-07T14:40:38;3.10;;;2.80;;
3022;SDS011;1521;53.584;9.938;2023-05-07T14:43:03;3.23;;;3.03;;
3022;SDS011;1521;53.584;9.938;2023-05-07T14:45:29;3.33;;;3.00;;
3022;SDS011;1521;53.584;9.938;2023-05-07T14:47:55;4.70;;;3.00;;
3022;SDS011;1521;53.584;9.938;2023-05-07T14:50:20;2.87;;;2.67;;
3022;SDS011;1521;53.584;9.938;2023-05-07T14:52:46;2.90;;;2.70;;
3022;SDS011;1521;53.584;9.938;2023-05-07T14:55:11;5.83;;;2.70;;
3022;SDS011;1521;53.584;9.938;2023-05-07T14:57:37;6.90;;;2.80;;
3022;SDS011;1521;53.584;9.938;2023-05-07T15:00:03;4.13;;;2.63;;
3022;SDS011;1521;53.584;9.938;2023-05-07T15:02:33;3.20;;;3.00;;
3022;SDS011;1521;53.584;9.938;2023-05-07T15:04:59;3.30;;;2.60;;
3022;SDS011;1521;53.584;9.938;2023-05-07T15:07:25;2.97;;;2.77;;
3022;SDS011;1521;53.584;9.938;2023-05-07T15:09:50;3.70;;;3.00;;
3022;SDS011;1521;53.584;9.938;2023-05-07T15:12:16;6.10;;;3.17;;
3022;SDS011;1521;53.584;9.938;2023-05-07T15:14:42;3.10;;;2.90;;